createdAt,value
2023-05-09T00:00:12.445Z,16.52
2023-05-09T00:02:46.001Z,19.73
2023-05-09T00:05:15.542Z,18.80
2023-05-09T00:07:44.767Z,17.80
2023-05-09T00:10:13.794Z,16.58
2023-05-09T00:12:43.718Z,16.10
2023-05-09T00:15:16.105Z,21.60
2023-05-09T00:17:46.733Z,13.98
2023-05-09T00:20:15.786Z,17.73
2023-05-09T00:22:44.788Z,19.20
2023-05-09T00:25:13.984Z,22.20
2023-05-09T00:27:46.651Z,14.13
2023-05-09T00:30:16.045Z,22.25
2023-05-09T00:32:46.541Z,18.98
2023-05-09T00:35:16.240Z,22.03
2023-05-09T00:37:45.489Z,18.92
2023-05-09T00:40:15.029Z,18.85
2023-05-09T00:42:44.133Z,25.05
2023-05-09T00:45:13.531Z,18.92
2023-05-09T00:47:42.803Z,14.00
2023-05-09T00:50:13.943Z,17.20
2023-05-09T00:52:43.133Z,18.63
2023-05-09T00:55:12.835Z,30.85
2023-05-09T00:57:41.981Z,18.92
2023-05-09T01:00:13.463Z,24.80
2023-05-09T01:02:43.347Z,19.05
2023-05-09T01:05:14.664Z,18.20
2023-05-09T01:07:51.296Z,18.88
2023-05-09T01:10:26.590Z,25.55
2023-05-09T01:13:05.102Z,20.42
2023-05-09T01:15:40.747Z,16.77
2023-05-09T01:18:17.290Z,21.25
2023-05-09T01:20:53.322Z,17.90
2023-05-09T01:24:02.873Z,22.83
2023-05-09T01:26:44.646Z,24.95
2023-05-09T01:29:35.350Z,21.13
2023-05-09T01:32:08.572Z,24.97
2023-05-09T01:34:41.971Z,27.42
2023-05-09T01:37:12.367Z,27.83
2023-05-09T01:39:46.222Z,23.07
2023-05-09T01:42:18.155Z,25.02
2023-05-09T01:44:50.627Z,22.23
2023-05-09T01:47:20.967Z,28.20
2023-05-09T01:49:51.321Z,22.83
2023-05-09T01:52:22.598Z,21.42
2023-05-09T01:54:53.649Z,20.50
2023-05-09T01:57:23.987Z,26.50
2023-05-09T01:59:55.443Z,21.23
2023-05-09T02:02:26.104Z,19.75
2023-05-09T02:04:57.561Z,19.77
2023-05-09T02:09:59.257Z,27.30
2023-05-09T02:12:28.580Z,17.95
2023-05-09T02:14:59.000Z,25.40
2023-05-09T02:17:30.904Z,24.63
2023-05-09T02:20:00.079Z,15.65
2023-05-09T02:22:29.661Z,16.98
2023-05-09T02:25:00.624Z,24.73
2023-05-09T02:27:34.394Z,19.10
2023-05-09T02:30:07.666Z,25.70
2023-05-09T02:32:38.245Z,21.33
2023-05-09T02:35:09.965Z,23.60
2023-05-09T02:37:39.444Z,21.13
2023-05-09T02:40:10.980Z,15.70
2023-05-09T02:42:40.024Z,16.33
2023-05-09T02:45:11.951Z,19.25
2023-05-09T02:47:41.360Z,17.48
2023-05-09T02:50:10.910Z,21.75
2023-05-09T02:52:41.020Z,15.60
2023-05-09T02:55:10.827Z,14.05
2023-05-09T02:57:42.340Z,13.25
2023-05-09T03:00:14.464Z,18.20
2023-05-09T03:02:43.676Z,15.20
2023-05-09T03:05:18.400Z,19.00
2023-05-09T03:07:47.473Z,18.58
2023-05-09T03:10:16.554Z,22.80
2023-05-09T03:12:45.652Z,12.32
2023-05-09T03:15:16.264Z,16.00
2023-05-09T03:20:41.243Z,19.98
2023-05-09T03:23:12.610Z,15.75
2023-05-09T03:25:54.844Z,24.98
2023-05-09T03:28:23.917Z,18.30
2023-05-09T03:30:54.358Z,19.48
2023-05-09T03:33:26.743Z,19.50
2023-05-09T03:35:57.242Z,23.27
2023-05-09T03:38:26.626Z,22.92
2023-05-09T03:40:55.895Z,18.48
2023-05-09T03:43:25.429Z,13.88
2023-05-09T03:45:56.156Z,24.60
2023-05-09T03:48:25.624Z,15.00
2023-05-09T03:50:54.783Z,18.02
2023-05-09T03:53:25.475Z,14.68
2023-05-09T03:55:57.340Z,15.98
2023-05-09T03:58:27.558Z,21.75
2023-05-09T04:00:58.374Z,19.33
2023-05-09T04:03:28.326Z,15.65
2023-05-09T04:05:57.531Z,16.08
2023-05-09T04:08:39.940Z,15.23
2023-05-09T04:11:09.705Z,22.83
2023-05-09T04:13:40.795Z,15.27
2023-05-09T04:16:24.628Z,20.08
2023-05-09T04:18:53.716Z,19.87
2023-05-09T04:21:22.819Z,19.40
2023-05-09T04:23:55.567Z,18.90
2023-05-09T04:26:32.351Z,18.25
2023-05-09T04:29:02.344Z,19.88
2023-05-09T04:31:32.961Z,19.23
2023-05-09T04:34:03.288Z,22.10
2023-05-09T04:36:35.262Z,20.52
2023-05-09T04:39:05.239Z,18.88
2023-05-09T04:41:36.301Z,17.95
2023-05-09T04:44:05.461Z,15.70
2023-05-09T04:46:36.052Z,15.30
2023-05-09T04:49:05.404Z,23.15
2023-05-09T04:51:34.570Z,20.27
2023-05-09T04:54:03.727Z,15.07
2023-05-09T04:56:35.976Z,17.23
2023-05-09T04:59:05.363Z,15.98
2023-05-09T05:01:35.979Z,18.38
2023-05-09T05:04:05.290Z,29.65
2023-05-09T05:06:35.332Z,17.75
2023-05-09T05:09:05.132Z,23.25
2023-05-09T05:11:34.163Z,16.52
2023-05-09T05:14:05.024Z,19.45
2023-05-09T05:16:35.918Z,20.25
2023-05-09T05:19:05.260Z,18.52
2023-05-09T05:21:38.899Z,15.65
2023-05-09T05:24:08.420Z,24.52
2023-05-09T05:26:37.833Z,18.95
2023-05-09T05:29:07.583Z,17.15
2023-05-09T05:31:38.186Z,15.32
2023-05-09T05:34:07.406Z,12.40
2023-05-09T05:36:36.569Z,16.58
2023-05-09T05:39:05.881Z,16.23
2023-05-09T05:41:34.916Z,19.13
2023-05-09T05:44:06.859Z,24.35
2023-05-09T05:46:38.183Z,20.75
2023-05-09T05:49:07.944Z,26.05
2023-05-09T05:51:37.151Z,31.42
2023-05-09T05:54:07.310Z,27.05
2023-05-09T05:56:37.403Z,25.67
2023-05-09T05:59:07.055Z,22.45
2023-05-09T06:01:37.500Z,19.98
2023-05-09T06:04:06.984Z,27.23
2023-05-09T06:06:36.676Z,26.05
2023-05-09T06:09:05.841Z,28.63
2023-05-09T06:11:34.945Z,27.08
2023-05-09T06:14:05.735Z,24.08
2023-05-09T06:16:35.095Z,23.65
2023-05-09T06:19:05.507Z,19.60
2023-05-09T06:21:34.551Z,25.92
2023-05-09T06:24:11.892Z,16.30
2023-05-09T06:26:46.103Z,18.15
2023-05-09T06:29:16.575Z,22.30
2023-05-09T06:31:45.738Z,22.77
2023-05-09T06:34:16.205Z,21.08
2023-05-09T06:36:45.225Z,18.83
2023-05-09T06:39:14.274Z,20.42
2023-05-09T06:41:43.255Z,19.77
2023-05-09T06:44:12.258Z,23.23
2023-05-09T06:46:41.473Z,25.95
2023-05-09T06:49:11.081Z,27.25
2023-05-09T06:51:41.569Z,25.17
2023-05-09T06:54:10.609Z,23.13
2023-05-09T06:56:39.661Z,17.80
2023-05-09T06:59:13.214Z,23.50
2023-05-09T07:01:42.258Z,18.23
2023-05-09T07:04:11.361Z,22.98
2023-05-09T07:06:41.947Z,17.98
2023-05-09T07:09:11.251Z,21.02
2023-05-09T07:11:40.334Z,21.77
2023-05-09T07:14:09.350Z,23.33
2023-05-09T07:16:38.426Z,25.23
2023-05-09T07:19:07.509Z,30.73
2023-05-09T07:21:36.544Z,20.25
2023-05-09T07:24:07.814Z,21.35
2023-05-09T07:26:36.878Z,28.95
2023-05-09T07:29:05.978Z,22.50
2023-05-09T07:31:37.260Z,21.95
2023-05-09T07:34:07.378Z,20.00
2023-05-09T07:39:09.344Z,21.02
2023-05-09T07:41:38.386Z,20.77
2023-05-09T07:44:09.448Z,19.40
2023-05-09T07:46:40.450Z,21.85
2023-05-09T07:49:09.678Z,15.18
2023-05-09T07:51:38.722Z,20.20
2023-05-09T07:54:10.208Z,25.02
2023-05-09T07:56:39.321Z,17.25
2023-05-09T07:59:08.614Z,20.42
2023-05-09T08:01:37.661Z,20.02
2023-05-09T08:04:09.225Z,22.03
2023-05-09T08:06:38.384Z,16.38
2023-05-09T08:09:08.816Z,19.70
2023-05-09T08:11:38.136Z,17.10
2023-05-09T08:14:07.202Z,26.17
2023-05-09T08:16:36.390Z,21.48
2023-05-09T08:19:05.431Z,22.20
2023-05-09T08:21:34.417Z,20.88
2023-05-09T08:24:03.498Z,14.23
2023-05-09T08:26:34.009Z,21.48
2023-05-09T08:29:03.068Z,24.80
2023-05-09T08:31:32.244Z,21.50
2023-05-09T08:34:01.319Z,18.88
2023-05-09T08:36:30.664Z,20.77
2023-05-09T08:38:59.762Z,17.67
2023-05-09T08:41:29.085Z,22.27
2023-05-09T08:43:59.678Z,23.95
2023-05-09T08:46:32.263Z,25.42
2023-05-09T08:49:02.713Z,18.85
2023-05-09T08:51:33.253Z,20.30
2023-05-09T08:54:02.542Z,18.70
2023-05-09T08:56:32.079Z,19.05
2023-05-09T08:59:02.670Z,20.60
2023-05-09T09:01:34.482Z,23.10
2023-05-09T09:04:06.776Z,17.65
2023-05-09T09:06:36.582Z,19.42
2023-05-09T09:09:08.572Z,16.92
2023-05-09T09:11:38.962Z,27.48
2023-05-09T09:14:14.051Z,16.10
2023-05-09T09:16:45.720Z,26.13
2023-05-09T09:19:18.823Z,20.23
2023-05-09T09:21:51.100Z,18.65
2023-05-09T09:24:24.333Z,20.10
2023-05-09T09:26:53.598Z,21.70
2023-05-09T09:29:24.637Z,23.95
2023-05-09T09:31:55.376Z,18.30
2023-05-09T09:34:25.244Z,24.90
2023-05-09T09:36:54.262Z,18.65
2023-05-09T09:39:23.338Z,24.30
2023-05-09T09:41:52.412Z,23.75
2023-05-09T09:44:23.589Z,25.30
2023-05-09T09:46:54.052Z,19.73
2023-05-09T09:49:24.695Z,16.77
2023-05-09T09:51:55.120Z,23.73
2023-05-09T09:54:26.921Z,20.20
2023-05-09T09:56:56.658Z,21.08
2023-05-09T09:59:28.068Z,25.15
2023-05-09T10:04:28.780Z,18.88
2023-05-09T10:06:59.170Z,21.88
2023-05-09T10:09:29.436Z,26.30
2023-05-09T10:12:02.881Z,27.67
2023-05-09T10:14:35.591Z,27.10
2023-05-09T10:17:06.542Z,21.92
2023-05-09T10:19:39.285Z,24.90
2023-05-09T10:22:12.112Z,31.33
2023-05-09T10:24:47.948Z,27.98
2023-05-09T10:27:22.910Z,28.42
2023-05-09T10:30:04.029Z,28.05
2023-05-09T10:32:42.547Z,27.00
2023-05-09T10:35:14.099Z,26.08
2023-05-09T10:37:43.810Z,26.95
2023-05-09T10:40:15.316Z,26.63
2023-05-09T10:42:45.020Z,32.85
2023-05-09T10:45:16.252Z,31.35
2023-05-09T10:47:46.711Z,21.83
2023-05-09T10:50:16.165Z,21.73
2023-05-09T10:53:11.667Z,26.52
2023-05-09T10:55:51.356Z,25.67
2023-05-09T10:58:28.113Z,26.05
2023-05-09T11:01:00.185Z,21.85
2023-05-09T11:03:50.970Z,28.15
2023-05-09T11:06:42.017Z,23.63
2023-05-09T11:09:28.753Z,28.25
2023-05-09T11:11:59.670Z,23.63
2023-05-09T11:14:39.581Z,26.65
2023-05-09T11:17:11.149Z,29.30
2023-05-09T11:19:59.207Z,24.55
2023-05-09T11:22:29.151Z,22.27
2023-05-09T11:25:05.727Z,28.92
2023-05-09T11:27:46.108Z,18.88
2023-05-09T11:30:16.696Z,28.52
2023-05-09T11:32:49.172Z,25.42
2023-05-09T11:35:21.094Z,26.75
2023-05-09T11:37:52.988Z,33.35
2023-05-09T11:40:23.771Z,24.08
2023-05-09T11:42:57.698Z,24.67
2023-05-09T11:45:29.595Z,20.65
2023-05-09T11:48:01.178Z,22.63
2023-05-09T11:50:30.608Z,24.88
2023-05-09T11:52:59.595Z,23.88
2023-05-09T11:55:30.266Z,22.42
2023-05-09T11:58:00.679Z,26.55
2023-05-09T12:00:29.917Z,25.65
2023-05-09T12:03:00.550Z,26.48
2023-05-09T12:05:29.880Z,24.52
2023-05-09T12:08:04.249Z,27.98
2023-05-09T12:10:33.389Z,20.77
2023-05-09T12:13:02.457Z,23.10
2023-05-09T12:15:37.409Z,20.05
2023-05-09T12:18:09.285Z,25.92
2023-05-09T12:20:45.444Z,25.45
2023-05-09T12:23:15.022Z,24.38
2023-05-09T12:25:49.945Z,20.88
2023-05-09T12:28:19.746Z,25.23
2023-05-09T12:30:48.952Z,23.23
2023-05-09T12:33:19.951Z,24.30
2023-05-09T12:35:49.874Z,26.33
2023-05-09T12:38:23.380Z,23.63
2023-05-09T12:41:03.846Z,25.35
2023-05-09T12:43:34.227Z,27.03
2023-05-09T12:46:04.167Z,22.77
2023-05-09T12:48:39.108Z,25.45
2023-05-09T12:51:09.282Z,26.33
2023-05-09T12:53:42.726Z,23.63
2023-05-09T12:56:16.624Z,21.80
2023-05-09T12:58:53.364Z,25.42
2023-05-09T13:01:24.316Z,21.73
2023-05-09T13:04:02.429Z,21.52
2023-05-09T13:06:31.450Z,27.55
2023-05-09T13:09:02.364Z,27.13
2023-05-09T13:11:31.596Z,26.45
2023-05-09T13:14:02.372Z,26.23
2023-05-09T13:16:31.482Z,28.33
2023-05-09T13:19:02.835Z,29.98
2023-05-09T13:24:03.042Z,28.88
2023-05-09T13:26:32.102Z,32.38
2023-05-09T13:29:01.168Z,28.42
2023-05-09T13:31:30.283Z,29.35
2023-05-09T13:33:59.319Z,30.05
2023-05-09T13:36:29.721Z,26.88
2023-05-09T13:38:58.740Z,26.55
2023-05-09T13:41:27.816Z,32.35
2023-05-09T13:43:56.997Z,27.23
2023-05-09T13:46:26.120Z,26.98
2023-05-09T13:48:55.588Z,24.80
2023-05-09T13:51:24.647Z,26.25
2023-05-09T13:53:55.082Z,27.50
2023-05-09T13:56:24.145Z,25.13
2023-05-09T13:58:53.435Z,31.40
2023-05-09T14:01:22.542Z,31.10
2023-05-09T14:03:52.503Z,31.90
2023-05-09T14:06:22.280Z,26.40
2023-05-09T14:08:51.485Z,32.28
2023-05-09T14:11:22.035Z,38.47
2023-05-09T14:13:52.565Z,33.47
2023-05-09T14:16:22.020Z,34.33
2023-05-09T14:18:51.053Z,28.25
2023-05-09T14:21:20.091Z,34.05
2023-05-09T14:23:49.676Z,31.33
2023-05-09T14:26:19.245Z,34.35
2023-05-09T14:28:49.866Z,34.35
2023-05-09T14:31:19.048Z,35.87
2023-05-09T14:33:48.375Z,35.00
2023-05-09T14:36:17.594Z,34.15
2023-05-09T14:38:46.978Z,37.80
2023-05-09T14:41:16.251Z,32.40
2023-05-09T14:43:45.496Z,29.10
2023-05-09T14:46:16.280Z,35.55
2023-05-09T14:48:45.512Z,36.15
2023-05-09T14:51:14.627Z,33.17
2023-05-09T14:53:44.214Z,32.47
2023-05-09T14:56:13.265Z,34.03
2023-05-09T14:58:42.319Z,36.17
2023-05-09T15:01:11.416Z,28.02
2023-05-09T15:03:41.876Z,31.23
2023-05-09T15:06:11.745Z,34.47
2023-05-09T15:08:41.598Z,36.38
2023-05-09T15:11:10.716Z,39.58
2023-05-09T15:13:39.814Z,36.72
2023-05-09T15:16:08.895Z,32.35
2023-05-09T15:18:42.747Z,26.42
2023-05-09T15:21:13.349Z,36.72
2023-05-09T15:23:42.579Z,26.27
2023-05-09T15:26:12.372Z,36.33
2023-05-09T15:28:41.546Z,21.73
2023-05-09T15:31:10.611Z,22.33
2023-05-09T15:33:39.724Z,25.30
2023-05-09T15:36:09.818Z,34.75
2023-05-09T15:38:40.292Z,32.05
2023-05-09T15:41:09.844Z,28.80
2023-05-09T15:43:38.936Z,33.05
2023-05-09T15:46:08.120Z,26.38
2023-05-09T15:48:37.379Z,32.08
2023-05-09T15:51:07.237Z,34.13
2023-05-09T15:53:36.504Z,24.33
2023-05-09T15:56:07.809Z,26.88
2023-05-09T15:58:36.907Z,26.52
2023-05-09T16:01:08.073Z,30.25
2023-05-09T16:06:07.331Z,27.20
2023-05-09T16:08:36.412Z,31.42
2023-05-09T16:11:06.932Z,28.00
2023-05-09T16:13:36.297Z,22.55
2023-05-09T16:16:06.269Z,23.88
2023-05-09T16:18:35.439Z,23.13
2023-05-09T16:21:04.635Z,23.50
2023-05-09T16:23:33.808Z,24.10
2023-05-09T16:26:02.854Z,24.50
2023-05-09T16:28:33.252Z,25.80
2023-05-09T16:31:05.013Z,23.53
2023-05-09T16:33:34.178Z,26.95
2023-05-09T16:36:03.561Z,21.27
2023-05-09T16:38:32.608Z,21.00
2023-05-09T16:41:01.871Z,24.10
2023-05-09T16:43:32.337Z,24.67
2023-05-09T16:46:01.490Z,26.00
2023-05-09T16:48:30.597Z,24.63
2023-05-09T16:50:59.749Z,26.48
2023-05-09T16:53:29.446Z,26.58
2023-05-09T16:55:58.649Z,22.02
2023-05-09T16:58:27.760Z,25.48
2023-05-09T17:01:00.387Z,22.10
2023-05-09T17:03:32.576Z,24.33
2023-05-09T17:06:01.758Z,8.85
2023-05-09T17:08:31.081Z,4.25
2023-05-09T17:11:00.200Z,3.80
2023-05-09T17:13:29.423Z,5.38
2023-05-09T17:16:00.024Z,5.47
2023-05-09T17:18:36.570Z,2.65
2023-05-09T17:21:07.063Z,5.43
2023-05-09T17:23:36.068Z,2.25
2023-05-09T17:26:05.486Z,2.03
2023-05-09T17:28:34.620Z,6.05
2023-05-09T17:31:06.544Z,2.85
2023-05-09T17:33:35.707Z,1.98
2023-05-09T17:36:07.427Z,3.08
2023-05-09T17:38:36.548Z,1.80
2023-05-09T17:41:06.038Z,2.38
2023-05-09T17:43:35.117Z,4.65
2023-05-09T17:46:06.056Z,3.03
2023-05-09T17:48:35.123Z,1.50
2023-05-09T17:51:04.184Z,3.30
2023-05-09T17:53:33.237Z,4.43
2023-05-09T17:56:02.293Z,5.53
2023-05-09T17:58:31.923Z,12.00
2023-05-09T18:01:01.297Z,11.95
2023-05-09T18:03:32.375Z,13.00
2023-05-09T18:08:31.032Z,9.55
2023-05-09T18:11:00.093Z,11.45
2023-05-09T18:13:29.780Z,8.10
2023-05-09T18:16:02.894Z,13.73
2023-05-09T18:18:34.404Z,11.80
2023-05-09T18:21:04.995Z,8.68
2023-05-09T18:23:33.999Z,9.03
2023-05-09T18:26:03.481Z,10.45
2023-05-09T18:28:39.192Z,9.80
2023-05-09T18:31:10.191Z,9.75
2023-05-09T18:33:43.517Z,11.50
2023-05-09T18:36:12.892Z,10.75
2023-05-09T18:38:43.356Z,11.40
2023-05-09T18:41:13.468Z,10.80
2023-05-09T18:43:46.012Z,9.52
2023-05-09T18:46:17.484Z,13.88
2023-05-09T18:48:51.142Z,12.50
2023-05-09T18:51:20.664Z,13.43
2023-05-09T18:53:49.838Z,12.15
2023-05-09T18:56:21.055Z,9.10
2023-05-09T18:58:50.793Z,9.70
2023-05-09T19:01:20.722Z,10.35
2023-05-09T19:03:54.316Z,9.75
2023-05-09T19:06:24.179Z,7.38
2023-05-09T19:08:53.903Z,3.78
2023-05-09T19:11:23.376Z,9.52
2023-05-09T19:14:01.575Z,4.88
2023-05-09T19:16:31.061Z,5.72
2023-05-09T19:19:02.659Z,6.72
2023-05-09T19:21:32.060Z,10.52
2023-05-09T19:24:01.153Z,5.82
2023-05-09T19:26:30.378Z,3.90
2023-05-09T19:29:00.816Z,6.20
2023-05-09T19:31:31.363Z,6.70
2023-05-09T19:34:02.111Z,7.13
2023-05-09T19:36:31.244Z,2.53
2023-05-09T19:39:00.611Z,8.38
2023-05-09T19:41:29.733Z,4.97
2023-05-09T19:43:59.462Z,5.88
2023-05-09T19:46:28.806Z,7.00
2023-05-09T19:48:57.933Z,10.88
2023-05-09T19:51:28.355Z,8.18
2023-05-09T19:53:57.512Z,6.67
2023-05-09T19:56:26.567Z,6.97
2023-05-09T19:58:55.755Z,5.90
2023-05-09T20:01:25.290Z,7.57
2023-05-09T20:03:54.671Z,6.03
2023-05-09T20:06:25.483Z,7.55
2023-05-09T20:08:55.975Z,7.22
2023-05-09T20:11:25.209Z,9.13
2023-05-09T20:13:54.257Z,6.50
2023-05-09T20:16:23.768Z,6.40
2023-05-09T20:18:55.098Z,10.75
2023-05-09T20:21:26.442Z,7.15
2023-05-09T20:26:25.564Z,6.35
2023-05-09T20:29:01.266Z,6.47
2023-05-09T20:31:30.522Z,8.00
2023-05-09T20:34:00.335Z,6.38
2023-05-09T20:36:29.743Z,8.18
2023-05-09T20:39:00.154Z,8.57
2023-05-09T20:41:29.877Z,9.32
2023-05-09T20:44:04.064Z,10.73
2023-05-09T20:46:33.646Z,7.85
2023-05-09T20:49:04.173Z,6.72
2023-05-09T20:51:33.273Z,7.40
2023-05-09T20:54:03.910Z,10.82
2023-05-09T20:56:33.669Z,8.35
2023-05-09T20:59:04.078Z,9.15
2023-05-09T21:01:35.631Z,6.72
2023-05-09T21:06:34.932Z,7.32
2023-05-09T21:09:06.430Z,8.02
2023-05-09T21:11:35.428Z,6.70
2023-05-09T21:14:04.460Z,4.22
2023-05-09T21:16:33.567Z,11.82
2023-05-09T21:19:04.907Z,10.55
2023-05-09T21:24:09.063Z,6.55
2023-05-09T21:26:38.282Z,11.57
2023-05-09T21:29:07.556Z,10.38
2023-05-09T21:31:37.150Z,8.10
2023-05-09T21:34:10.048Z,9.60
2023-05-09T21:36:39.545Z,10.73
2023-05-09T21:39:10.510Z,12.57
2023-05-09T21:41:42.797Z,8.65
2023-05-09T21:44:12.362Z,11.18
2023-05-09T21:46:43.489Z,10.77
2023-05-09T21:49:12.619Z,10.80
2023-05-09T21:51:41.631Z,11.25
2023-05-09T21:54:12.023Z,4.93
2023-05-09T21:56:42.548Z,9.77
2023-05-09T21:59:11.596Z,10.55
2023-05-09T22:01:40.853Z,10.25
2023-05-09T22:04:10.367Z,7.78
2023-05-09T22:06:41.676Z,5.93
2023-05-09T22:11:40.939Z,13.75
2023-05-09T22:14:10.443Z,10.50
2023-05-09T22:16:39.549Z,9.02
2023-05-09T22:19:08.554Z,12.38
2023-05-09T22:21:37.571Z,10.13
2023-05-09T22:24:07.713Z,14.73
2023-05-09T22:26:38.175Z,5.20
2023-05-09T22:29:07.160Z,8.97
2023-05-09T22:31:36.207Z,10.20
2023-05-09T22:34:05.333Z,5.53
2023-05-09T22:36:34.322Z,9.38
2023-05-09T22:39:03.322Z,7.85
2023-05-09T22:41:32.353Z,9.20
2023-05-09T22:44:02.759Z,9.75
2023-05-09T22:46:31.769Z,8.27
2023-05-09T22:49:00.855Z,10.73
2023-05-09T22:51:29.911Z,9.15
2023-05-09T22:53:58.946Z,8.70
2023-05-09T22:56:28.316Z,9.52
2023-05-09T22:58:57.347Z,10.65
2023-05-09T23:01:28.680Z,10.05
2023-05-09T23:06:26.510Z,8.70
2023-05-09T23:08:55.501Z,9.52
2023-05-09T23:11:25.603Z,15.57
2023-05-09T23:13:54.608Z,7.57
2023-05-09T23:16:23.738Z,9.27
2023-05-09T23:18:54.193Z,10.13
2023-05-09T23:21:23.223Z,9.47
2023-05-09T23:23:52.225Z,11.57
2023-05-09T23:26:21.273Z,9.27
2023-05-09T23:28:50.323Z,9.23
2023-05-09T23:31:19.410Z,12.55
2023-05-09T23:33:48.457Z,6.68
2023-05-09T23:36:18.988Z,8.45
2023-05-09T23:38:47.986Z,9.43
2023-05-09T23:41:16.972Z,8.27
2023-05-09T23:43:46.004Z,11.25
2023-05-09T23:46:15.005Z,10.40
2023-05-09T23:48:44.123Z,11.45
2023-05-09T23:51:13.181Z,8.32
2023-05-09T23:53:43.648Z,7.18
2023-05-09T23:56:12.624Z,7.13
2023-05-09T23:58:41.616Z,10.23
